Time;durP1;ratioP1;P1;durP2;ratioP2;P2;SDS_P1;SDS_P2;PMS_P1;PMS_P2;Temp;Humidity;BMP_temperature;BMP_pressure;BME280_temperature;BME280_humidity;BME280_pressure;Samples;Min_cycle;Max_cycle;Signal;HPM_P1;HPM_P2
2023/06/25 00:02:20;;;;;;;10.53;7.37;;;17.80;1.00;;;;;;4993540;28;20422;-82
2023/06/25 00:04:49;;;;;;;12.37;7.30;;;17.80;1.00;;;;;;4997519;28;20459;-82
2023/06/25 00:07:31;;;;;;;10.17;7.33;;;17.80;1.00;;;;;;5003099;28;20441;-82
2023/06/25 00:09:57;;;;;;;13.60;7.73;;;17.80;1.00;;;;;;4998977;28;20447;-81
2023/06/25 00:12:43;;;;;;;16.67;8.27;;;17.70;1.00;;;;;;5007805;28;20445;-81
2023/06/25 00:15:10;;;;;;;12.33;8.37;;;17.70;1.00;;;;;;5008373;28;20231;-82
2023/06/25 00:18:19;;;;;;;11.37;7.67;;;17.70;1.00;;;;;;4991081;28;20499;-82
2023/06/25 00:20:49;;;;;;;12.63;7.83;;;17.70;1.00;;;;;;4977344;28;20499;-82
2023/06/25 00:23:20;;;;;;;10.73;8.40;;;17.60;1.00;;;;;;4993164;28;20438;-82
2023/06/25 00:26:07;;;;;;;10.27;8.20;;;17.60;1.00;;;;;;4992998;28;20477;-82
2023/06/25 00:28:50;;;;;;;11.33;8.50;;;17.60;1.00;;;;;;5004002;28;20412;-82
2023/06/25 00:31:16;;;;;;;13.67;9.37;;;17.60;1.00;;;;;;4997571;28;20419;-82
2023/06/25 00:33:49;;;;;;;13.87;8.83;;;17.60;1.00;;;;;;4995455;28;20410;-82
2023/06/25 00:36:15;;;;;;;14.13;9.27;;;17.60;1.00;;;;;;4999909;28;20417;-82
2023/06/25 00:38:44;;;;;;;12.60;9.07;;;17.50;1.00;;;;;;5016108;28;20422;-75
2023/06/25 00:41:10;;;;;;;14.80;8.80;;;17.50;1.00;;;;;;5000150;28;20195;-75
2023/06/25 00:43:41;;;;;;;12.33;9.47;;;17.50;1.00;;;;;;4995558;28;20434;-75
2023/06/25 00:46:15;;;;;;;13.73;9.10;;;17.50;1.00;;;;;;5002759;28;20454;-75
2023/06/25 00:48:45;;;;;;;19.33;10.10;;;17.40;1.00;;;;;;5000418;28;20410;-75
2023/06/25 00:51:15;;;;;;;16.70;9.30;;;17.40;1.00;;;;;;4999454;28;20431;-75
2023/06/25 00:53:44;;;;;;;13.47;9.23;;;17.40;1.00;;;;;;4994986;28;20542;-75
2023/06/25 00:56:27;;;;;;;16.30;9.70;;;17.40;1.00;;;;;;4994800;28;20606;-75
2023/06/25 00:59:00;;;;;;;13.00;8.77;;;17.40;1.00;;;;;;5007277;28;20470;-75
2023/06/25 01:01:44;;;;;;;14.10;9.20;;;17.40;1.00;;;;;;4996647;28;20907;-76
2023/06/25 01:04:22;;;;;;;16.90;9.63;;;17.30;1.00;;;;;;4984729;28;20463;-75
2023/06/25 01:06:52;;;;;;;13.40;9.43;;;17.30;1.00;;;;;;4995908;28;20438;-75
2023/06/25 01:09:20;;;;;;;16.37;10.00;;;17.30;1.00;;;;;;4996409;28;20450;-75
2023/06/25 01:12:02;;;;;;;14.37;9.80;;;17.30;1.00;;;;;;4996012;28;20426;-75
2023/06/25 01:14:28;;;;;;;14.30;8.97;;;17.20;1.00;;;;;;4990977;28;20438;-75
2023/06/25 01:16:56;;;;;;;14.03;9.30;;;17.20;1.00;;;;;;4999791;28;20435;-75
2023/06/25 01:19:32;;;;;;;17.57;9.27;;;17.20;1.00;;;;;;4995525;28;20472;-75
2023/06/25 01:21:59;;;;;;;17.20;9.03;;;17.20;1.00;;;;;;4991394;28;20416;-75
2023/06/25 01:24:29;;;;;;;15.70;8.93;;;17.20;1.00;;;;;;5009614;28;20489;-75
2023/06/25 01:26:56;;;;;;;20.10;10.50;;;17.10;1.00;;;;;;5002512;28;20549;-75
2023/06/25 01:29:23;;;;;;;12.80;9.20;;;17.10;1.00;;;;;;5010039;28;20508;-75
2023/06/25 01:31:51;;;;;;;17.03;8.83;;;17.10;1.00;;;;;;5004244;28;20487;-75
2023/06/25 01:34:21;;;;;;;15.60;9.00;;;17.10;1.00;;;;;;5000785;28;20526;-75
2023/06/25 01:36:51;;;;;;;12.03;9.10;;;17.10;1.00;;;;;;4998129;28;20447;-75
2023/06/25 01:39:18;;;;;;;15.53;10.80;;;17.00;1.00;;;;;;4996209;28;20913;-75
2023/06/25 01:41:50;;;;;;;16.37;9.90;;;17.00;1.00;;;;;;4995464;28;20454;-75
2023/06/25 01:44:22;;;;;;;18.00;9.40;;;17.00;1.00;;;;;;4999927;28;20875;-75
2023/06/25 01:46:48;;;;;;;17.20;9.43;;;17.00;1.00;;;;;;5008125;28;20963;-75
2023/06/25 01:49:14;;;;;;;17.30;9.43;;;17.00;1.00;;;;;;4991351;28;20432;-75
2023/06/25 01:51:39;;;;;;;15.87;8.80;;;17.00;1.00;;;;;;4985289;28;20187;-75
2023/06/25 01:54:55;;;;;;;14.73;9.47;;;17.00;1.00;;;;;;4985255;28;20504;-82
2023/06/25 01:57:38;;;;;;;12.97;9.47;;;17.00;1.00;;;;;;4990301;28;20269;-82
2023/06/25 02:00:49;;;;;;;16.77;9.23;;;16.90;1.00;;;;;;4980350;28;20396;-82
2023/06/25 02:06:49;;;;;;;12.63;9.00;;;16.90;1.00;;;;;;4985981;28;20429;-82
2023/06/25 02:12:37;;;;;;;13.10;9.00;;;16.90;1.00;;;;;;5009813;28;20421;-81
2023/06/25 02:15:14;;;;;;;15.53;9.57;;;16.80;1.00;;;;;;5005791;28;20406;-81
2023/06/25 02:18:31;;;;;;;14.10;9.33;;;16.80;1.00;;;;;;4985931;28;20198;-81
2023/06/25 02:21:07;;;;;;;12.30;9.40;;;16.80;1.00;;;;;;5007184;28;20378;-81
2023/06/25 02:26:56;;;;;;;16.20;9.00;;;16.70;1.00;;;;;;5000210;28;20454;-81
2023/06/25 02:30:01;;;;;;;17.20;8.53;;;16.70;1.00;;;;;;5002994;28;20429;-82
2023/06/25 02:35:49;;;;;;;11.50;8.97;;;16.60;1.00;;;;;;4982973;28;20425;-81
2023/06/25 02:39:01;;;;;;;15.13;9.40;;;16.60;1.00;;;;;;4989515;28;20786;-85
2023/06/25 02:41:55;;;;;;;27.37;11.07;;;16.50;1.00;;;;;;5013467;28;20159;-83
2023/06/25 02:44:26;;;;;;;16.43;8.33;;;16.50;1.00;;;;;;5003077;28;20553;-83
2023/06/25 02:50:26;;;;;;;15.10;9.30;;;16.50;1.00;;;;;;4986869;28;20418;-83
2023/06/25 02:52:56;;;;;;;16.13;9.40;;;16.50;1.00;;;;;;4997355;28;20443;-83
2023/06/25 02:55:25;;;;;;;13.80;9.33;;;16.40;1.00;;;;;;5004651;28;20432;-83
2023/06/25 02:58:01;;;;;;;15.30;9.60;;;16.40;1.00;;;;;;4984925;28;20955;-82
2023/06/25 03:00:32;;;;;;;13.70;8.73;;;16.40;1.00;;;;;;5010152;28;20435;-83
2023/06/25 03:03:25;;;;;;;16.77;9.77;;;16.30;1.00;;;;;;5007900;28;20505;-83
2023/06/25 03:05:51;;;;;;;13.97;9.23;;;16.30;1.00;;;;;;4997502;28;20460;-83
2023/06/25 03:08:25;;;;;;;13.33;9.27;;;16.30;1.00;;;;;;4996001;28;20435;-83
2023/06/25 03:11:02;;;;;;;16.13;9.37;;;16.30;1.00;;;;;;4996867;28;20534;-83
2023/06/25 03:13:49;;;;;;;13.20;8.70;;;16.30;1.00;;;;;;5014093;28;20413;-83
2023/06/25 03:16:15;;;;;;;10.63;7.87;;;16.30;1.00;;;;;;5005609;28;20428;-83
2023/06/25 03:18:44;;;;;;;13.03;9.43;;;16.30;1.00;;;;;;4983381;28;20431;-83
2023/06/25 03:21:13;;;;;;;13.23;8.30;;;16.30;1.00;;;;;;5013938;28;20158;-84
2023/06/25 03:23:44;;;;;;;18.17;9.80;;;16.30;1.00;;;;;;5000980;28;20922;-85
2023/06/25 03:26:20;;;;;;;15.47;9.03;;;16.30;1.00;;;;;;4982354;28;20430;-84
2023/06/25 03:28:51;;;;;;;13.53;8.60;;;16.30;1.00;;;;;;4993170;28;20428;-83
2023/06/25 03:32:13;;;;;;;13.27;8.97;;;16.30;1.00;;;;;;4995010;28;20418;-83
2023/06/25 03:35:19;;;;;;;12.07;8.87;;;16.30;1.00;;;;;;4999632;28;20427;-83
2023/06/25 03:37:45;;;;;;;11.73;8.13;;;16.20;1.00;;;;;;5003361;28;20455;-84
2023/06/25 03:40:38;;;;;;;13.93;8.93;;;16.20;1.00;;;;;;5008920;28;20398;-83
2023/06/25 03:43:13;;;;;;;12.63;8.40;;;16.20;1.00;;;;;;5005886;28;20179;-83
2023/06/25 03:45:44;;;;;;;12.37;8.73;;;16.20;1.00;;;;;;4988942;28;20943;-83
2023/06/25 03:48:49;;;;;;;17.20;9.70;;;16.30;1.00;;;;;;4984019;28;20425;-83
2023/06/25 03:51:37;;;;;;;11.70;7.70;;;16.30;1.00;;;;;;5012858;28;20418;-83
2023/06/25 03:54:43;;;;;;;13.97;9.93;;;16.30;1.00;;;;;;4997842;28;20488;-83
2023/06/25 03:57:31;;;;;;;12.60;9.13;;;16.40;1.00;;;;;;5016513;28;20403;-83
2023/06/25 04:07:19;;;;;;;10.53;8.10;;;16.40;1.00;;;;;;4977792;28;20427;-82
2023/06/25 04:09:50;;;;;;;12.93;8.03;;;16.50;1.00;;;;;;5000534;28;20453;-83
2023/06/25 04:12:20;;;;;;;14.20;9.00;;;16.50;1.00;;;;;;5014508;28;20749;-83
2023/06/25 04:15:13;;;;;;;15.50;9.57;;;16.50;1.00;;;;;;5004892;28;20440;-83
2023/06/25 04:17:56;;;;;;;12.83;8.83;;;16.60;1.00;;;;;;5000759;28;20515;-83
2023/06/25 04:20:55;;;;;;;13.77;8.97;;;16.60;1.00;;;;;;4980946;28;20453;-83
2023/06/25 04:23:26;;;;;;;12.93;8.40;;;16.70;1.00;;;;;;5018635;28;20392;-82
2023/06/25 04:26:02;;;;;;;12.33;7.87;;;16.80;1.00;;;;;;4977942;28;20434;-83
2023/06/25 04:28:32;;;;;;;15.97;8.60;;;16.80;1.00;;;;;;4988916;28;20963;-83
2023/06/25 04:31:43;;;;;;;13.27;8.40;;;16.90;1.00;;;;;;4996940;28;20426;-83
2023/06/25 04:34:14;;;;;;;13.80;8.47;;;16.90;1.00;;;;;;4996906;28;20412;-83
2023/06/25 04:43:23;;;;;;;12.93;8.33;;;17.10;1.00;;;;;;5001429;28;20452;-83
2023/06/25 04:46:02;;;;;;;13.03;8.60;;;17.20;1.00;;;;;;5002922;28;20438;-83
2023/06/25 04:48:45;;;;;;;12.00;9.03;;;17.20;1.00;;;;;;5015828;28;20688;-83
2023/06/25 04:51:46;;;;;;;15.83;9.37;;;17.30;1.00;;;;;;5005216;28;20439;-83
2023/06/25 04:54:31;;;;;;;13.37;8.37;;;17.40;1.00;;;;;;5007620;28;20425;-83
2023/06/25 04:57:31;;;;;;;11.77;8.40;;;17.50;1.00;;;;;;5010806;28;20438;-82
2023/06/25 05:03:19;;;;;;;9.90;7.83;;;17.70;1.00;;;;;;5003016;28;20397;-83
2023/06/25 05:05:50;;;;;;;18.90;8.50;;;17.80;1.00;;;;;;5013361;28;20443;-83
2023/06/25 05:08:37;;;;;;;10.70;7.57;;;17.90;1.00;;;;;;4976965;28;20525;-83
2023/06/25 05:11:13;;;;;;;11.03;7.30;;;18.00;1.00;;;;;;5001211;28;20431;-83
2023/06/25 05:13:44;;;;;;;11.57;7.50;;;18.20;1.00;;;;;;5003312;28;20905;-83
2023/06/25 05:16:26;;;;;;;10.23;8.10;;;18.20;1.00;;;;;;5009462;28;20952;-83
2023/06/25 05:18:55;;;;;;;14.47;8.43;;;18.40;1.00;;;;;;5001349;28;20439;-83
2023/06/25 05:22:01;;;;;;;11.87;7.80;;;18.50;1.00;;;;;;4993800;28;20475;-83
2023/06/25 05:25:13;;;;;;;11.40;7.93;;;18.60;1.00;;;;;;4991270;28;20821;-83
2023/06/25 05:28:19;;;;;;;11.43;7.40;;;18.70;1.00;;;;;;4994606;28;20449;-83
2023/06/25 05:30:55;;;;;;;12.80;7.57;;;18.90;1.00;;;;;;5013921;28;20430;-84
2023/06/25 05:33:32;;;;;;;9.10;7.20;;;19.00;1.00;;;;;;5015624;28;20415;-83
2023/06/25 05:36:31;;;;;;;9.73;7.30;;;19.10;1.00;;;;;;4996844;28;20929;-83
2023/06/25 05:39:08;;;;;;;15.90;6.77;;;19.20;1.00;;;;;;5004726;28;20481;-84
2023/06/25 05:42:01;;;;;;;12.70;6.80;;;19.40;1.00;;;;;;5001836;28;20554;-83
2023/06/25 05:44:27;;;;;;;9.83;6.43;;;19.50;1.00;;;;;;4994358;28;20559;-82
2023/06/25 05:47:13;;;;;;;9.17;6.77;;;19.60;1.00;;;;;;4990429;28;20525;-83
2023/06/25 05:50:01;;;;;;;8.40;6.20;;;19.80;1.00;;;;;;4990440;28;20454;-83
2023/06/25 05:52:44;;;;;;;11.33;6.20;;;20.00;1.00;;;;;;4999227;28;20452;-83
2023/06/25 05:55:14;;;;;;;15.20;7.37;;;20.10;1.00;;;;;;4986282;28;20451;-85
2023/06/25 05:58:02;;;;;;;8.00;6.10;;;20.20;1.00;;;;;;5001331;28;20480;-83
2023/06/25 06:03:49;;;;;;;11.73;5.73;;;20.50;1.00;;;;;;4999363;28;20454;-83
2023/06/25 06:06:20;;;;;;;6.70;5.40;;;;;;;;;;5005467;28;20524;-83
2023/06/25 06:09:13;;;;;;;6.93;6.07;;;20.70;1.00;;;;;;4992055;28;20582;-83
2023/06/25 06:12:25;;;;;;;6.17;5.40;;;20.90;1.00;;;;;;4994542;28;20405;-85
2023/06/25 06:15:02;;;;;;;6.87;5.70;;;21.00;1.00;;;;;;5007679;28;20424;-85
2023/06/25 06:21:25;;;;;;;8.20;5.33;;;21.30;1.00;;;;;;4996934;28;20444;-85
2023/06/25 06:23:56;;;;;;;6.20;5.17;;;21.40;1.00;;;;;;5002673;28;20446;-85
2023/06/25 06:26:43;;;;;;;6.60;5.63;;;21.50;1.00;;;;;;5009056;28;20926;-84
2023/06/25 06:29:31;;;;;;;11.77;5.40;;;21.70;1.00;;;;;;4994674;28;20459;-84
2023/06/25 06:32:02;;;;;;;8.30;5.87;;;21.80;1.00;;;;;;4988544;28;20458;-80
2023/06/25 06:34:55;;;;;;;7.80;5.50;;;21.90;1.00;;;;;;4994908;28;20964;-81
2023/06/25 06:37:38;;;;;;;13.93;6.10;;;22.10;1.00;;;;;;4996531;28;20425;-82
2023/06/25 06:40:20;;;;;;;12.40;5.80;;;22.20;1.00;;;;;;4973928;28;20430;-81
2023/06/25 06:42:56;;;;;;;9.40;5.90;;;22.40;1.00;;;;;;5006078;28;20920;-85
2023/06/25 06:45:49;;;;;;;8.90;6.40;;;22.50;1.00;;;;;;4999305;28;20513;-84
2023/06/25 06:48:26;;;;;;;6.40;5.47;;;22.70;1.00;;;;;;4991753;28;20431;-84
2023/06/25 06:54:20;;;;;;;11.10;5.60;;;23.00;1.00;;;;;;4996754;28;20451;-84
2023/06/25 06:56:45;;;;;;;8.93;5.50;;;23.10;1.00;;;;;;4992987;28;20457;-81
2023/06/25 06:59:31;;;;;;;7.87;5.60;;;23.30;1.00;;;;;;4995649;28;20514;-81
2023/06/25 07:02:14;;;;;;;6.27;5.40;;;23.40;1.00;;;;;;5016653;28;20193;-81
2023/06/25 07:04:51;;;;;;;6.30;5.03;;;23.60;1.00;;;;;;5010092;28;21015;-81
2023/06/25 07:07:43;;;;;;;9.90;5.30;;;23.70;1.00;;;;;;5003714;28;20866;-81
2023/06/25 07:10:14;;;;;;;5.70;4.90;;;23.80;1.00;;;;;;5000385;28;20995;-81
2023/06/25 07:13:01;;;;;;;11.10;5.30;;;24.00;1.00;;;;;;4984719;28;20427;-81
2023/06/25 07:15:27;;;;;;;10.03;5.60;;;24.20;1.00;;;;;;4996696;28;20431;-81
2023/06/25 07:17:53;;;;;;;6.87;5.77;;;24.20;1.00;;;;;;4995550;28;20573;-81
2023/06/25 07:20:20;;;;;;;6.33;5.33;;;24.40;1.00;;;;;;4999879;28;20196;-81
2023/06/25 07:23:07;;;;;;;8.10;5.23;;;24.50;1.00;;;;;;5028326;28;20240;-80
2023/06/25 07:25:35;;;;;;;8.03;6.10;;;24.60;1.00;;;;;;5001812;28;20556;-81
2023/06/25 07:28:19;;;;;;;6.70;5.57;;;24.70;1.00;;;;;;5002338;28;20801;-84
2023/06/25 07:31:02;;;;;;;14.53;6.40;;;24.90;1.00;;;;;;5001498;28;20493;-84
2023/06/25 07:33:44;;;;;;;6.87;5.20;;;25.00;1.00;;;;;;5009136;28;20892;-84
2023/06/25 07:36:10;;;;;;;6.70;5.43;;;25.10;1.00;;;;;;5008996;28;20439;-84
2023/06/25 07:38:44;;;;;;;9.27;5.40;;;25.20;1.00;;;;;;5010867;28;20442;-83
2023/06/25 07:41:43;;;;;;;9.30;5.57;;;25.30;1.00;;;;;;4999163;28;20427;-81
2023/06/25 07:44:26;;;;;;;7.60;5.37;;;25.40;1.00;;;;;;5005512;28;20435;-81
2023/06/25 07:47:13;;;;;;;6.33;5.57;;;25.50;1.00;;;;;;4992991;28;20419;-81
2023/06/25 07:49:56;;;;;;;6.57;5.20;;;25.70;1.00;;;;;;5006644;28;20485;-81
2023/06/25 07:52:21;;;;;;;5.97;5.37;;;25.80;1.00;;;;;;5002005;28;20893;-83
2023/06/25 07:55:22;;;;;;;10.40;5.97;;;26.00;1.00;;;;;;4991945;28;20438;-83
2023/06/25 07:57:48;;;;;;;7.10;5.60;;;26.00;1.00;;;;;;5011715;28;20188;-85
2023/06/25 08:00:14;;;;;;;7.30;5.10;;;26.10;1.00;;;;;;5002239;28;20456;-85
2023/06/25 08:03:04;;;;;;;5.60;5.00;;;26.20;1.00;;;;;;5005222;28;20190;-85
2023/06/25 08:05:44;;;;;;;5.83;5.23;;;26.50;1.00;;;;;;5004151;28;20460;-85
2023/06/25 08:08:10;;;;;;;9.50;5.20;;;;;;;;;;5006958;28;20429;-85
2023/06/25 08:10:44;;;;;;;9.40;5.30;;;;;;;;;;4994700;28;21094;-83
2023/06/25 08:13:37;;;;;;;8.00;6.00;;;26.80;1.00;;;;;;4996503;28;20426;-84
2023/06/25 08:19:38;;;;;;;6.60;4.90;;;26.90;1.00;;;;;;5002118;28;20421;-84
2023/06/25 08:25:26;;;;;;;7.80;5.90;;;27.00;1.00;;;;;;5005976;28;20548;-84
2023/06/25 08:28:19;;;;;;;10.23;5.00;;;27.00;1.00;;;;;;5005157;28;20479;-84
2023/06/25 08:30:50;;;;;;;6.13;5.40;;;27.20;1.00;;;;;;4996574;28;20429;-83
2023/06/25 08:33:20;;;;;;;5.80;5.20;;;27.30;1.00;;;;;;5011858;28;20431;-84
2023/06/25 08:35:57;;;;;;;12.77;5.57;;;27.60;1.00;;;;;;4998392;28;20787;-83
2023/06/25 08:38:24;;;;;;;12.80;4.77;;;27.60;1.00;;;;;;4993437;28;20430;-83
2023/06/25 08:40:52;;;;;;;6.47;5.00;;;27.70;1.00;;;;;;4999026;28;20408;-81
2023/06/25 08:43:26;;;;;;;6.80;4.70;;;27.80;1.00;;;;;;4999172;28;20412;-82
2023/06/25 08:46:14;;;;;;;6.10;4.93;;;27.80;1.00;;;;;;4993204;28;20501;-82
2023/06/25 08:49:10;;;;;;;5.53;5.03;;;27.90;1.00;;;;;;4984533;28;20437;-82
2023/06/25 08:51:38;;;;;;;6.43;5.20;;;28.10;1.00;;;;;;4964283;28;20424;-82
2023/06/25 08:54:25;;;;;;;5.77;4.70;;;28.10;1.00;;;;;;4987135;28;20411;-82
2023/06/25 08:56:51;;;;;;;6.70;5.40;;;28.20;1.00;;;;;;4983422;28;20436;-75
2023/06/25 08:59:17;;;;;;;6.27;4.97;;;28.20;1.00;;;;;;4988275;28;20483;-75
2023/06/25 09:01:42;;;;;;;7.63;4.93;;;28.30;1.00;;;;;;4974513;28;20626;-75
2023/06/25 09:04:14;;;;;;;15.83;4.70;;;28.30;1.00;;;;;;4977342;28;20189;-75
2023/06/25 09:06:40;;;;;;;7.73;4.30;;;28.30;1.00;;;;;;4984422;28;20176;-75
2023/06/25 09:09:14;;;;;;;7.80;4.73;;;28.40;1.00;;;;;;4977593;28;20557;-75
2023/06/25 09:11:45;;;;;;;6.27;4.77;;;28.50;1.00;;;;;;4983469;28;20900;-81
2023/06/25 09:14:43;;;;;;;6.20;4.77;;;28.50;1.00;;;;;;4978525;28;20428;-82
2023/06/25 09:17:26;;;;;;;5.40;4.70;;;28.70;1.00;;;;;;4993837;28;20422;-82
2023/06/25 09:20:06;;;;;;;6.43;4.60;;;28.80;1.00;;;;;;4982959;28;20399;-82
2023/06/25 09:23:05;;;;;;;8.73;4.80;;;29.10;1.00;;;;;;4987742;28;20436;-82
2023/06/25 09:25:38;;;;;;;5.30;4.00;;;29.10;1.00;;;;;;4987581;28;20467;-82
2023/06/25 09:28:04;;;;;;;4.70;4.20;;;29.10;1.00;;;;;;5003076;28;20414;-75
2023/06/25 09:30:29;;;;;;;5.47;4.77;;;29.10;1.00;;;;;;4995984;28;20983;-75
2023/06/25 09:32:55;;;;;;;5.67;3.60;;;29.10;1.00;;;;;;5002452;28;20902;-75
2023/06/25 09:35:25;;;;;;;4.47;4.00;;;29.40;1.00;;;;;;4996212;28;20283;-75
2023/06/25 09:37:52;;;;;;;4.00;3.60;;;29.50;1.00;;;;;;5002650;28;20181;-75
2023/06/25 09:40:19;;;;;;;7.03;4.73;;;29.70;1.00;;;;;;4997248;28;20816;-75
2023/06/25 09:43:05;;;;;;;6.70;4.57;;;29.80;1.00;;;;;;4998105;28;20446;-83
2023/06/25 09:45:51;;;;;;;4.90;4.37;;;29.60;1.00;;;;;;4987410;28;20468;-83
2023/06/25 09:49:01;;;;;;;4.87;4.37;;;29.50;1.00;;;;;;4992679;28;20455;-84
2023/06/25 09:52:16;;;;;;;4.37;3.97;;;29.70;1.00;;;;;;4982799;28;20516;-83
2023/06/25 09:54:44;;;;;;;4.50;4.10;;;29.80;1.00;;;;;;4994039;28;20535;-83
2023/06/25 09:57:16;;;;;;;7.23;4.70;;;29.80;1.00;;;;;;4993365;28;20429;-83
2023/06/25 09:59:45;;;;;;;5.00;4.50;;;29.90;1.00;;;;;;4992835;28;20447;-84
2023/06/25 10:02:15;;;;;;;8.10;4.57;;;29.90;1.00;;;;;;4994250;28;20836;-83
2023/06/25 10:04:41;;;;;;;5.67;4.13;;;29.90;1.00;;;;;;5011279;28;20547;-84
2023/06/25 10:07:14;;;;;;;5.30;4.70;;;30.10;1.00;;;;;;4987395;28;20513;-84
2023/06/25 10:09:54;;;;;;;6.07;4.40;;;30.20;1.00;;;;;;5008835;28;20235;-84
2023/06/25 10:12:20;;;;;;;5.93;4.57;;;30.30;1.00;;;;;;5000355;28;20438;-84
2023/06/25 10:15:05;;;;;;;5.30;4.80;;;30.30;1.00;;;;;;4996702;28;20428;-84
2023/06/25 10:18:07;;;;;;;5.27;4.60;;;30.30;1.00;;;;;;4991942;28;20417;-84
2023/06/25 10:21:02;;;;;;;6.63;5.10;;;30.10;1.00;;;;;;5002722;28;20783;-84
2023/06/25 10:23:55;;;;;;;6.07;4.50;;;30.00;1.00;;;;;;5000481;28;20472;-83
2023/06/25 10:26:55;;;;;;;4.70;4.30;;;30.10;1.00;;;;;;5007291;28;20454;-84
2023/06/25 10:29:26;;;;;;;5.50;4.40;;;30.20;1.00;;;;;;4980730;28;20430;-83
2023/06/25 10:32:17;;;;;;;6.80;4.40;;;30.40;1.00;;;;;;4996270;28;20944;-83
2023/06/25 10:34:44;;;;;;;5.27;4.40;;;30.60;1.00;;;;;;5004019;28;20416;-84
2023/06/25 10:37:20;;;;;;;5.00;4.30;;;30.70;1.00;;;;;;4998131;28;20435;-83
2023/06/25 10:39:46;;;;;;;5.93;4.27;;;30.80;1.00;;;;;;5008517;28;20525;-83
2023/06/25 10:42:13;;;;;;;5.90;4.10;;;30.90;1.00;;;;;;4987513;28;20446;-83
2023/06/25 10:44:40;;;;;;;4.77;4.23;;;31.00;1.00;;;;;;5004218;28;20574;-83
2023/06/25 10:48:01;;;;;;;6.20;4.13;;;31.10;1.00;;;;;;5014950;28;20432;-84
2023/06/25 10:50:55;;;;;;;4.67;4.27;;;31.10;1.00;;;;;;5004070;28;20959;-84
2023/06/25 10:53:23;;;;;;;8.30;5.00;;;31.00;1.00;;;;;;4986634;28;20422;-84
2023/06/25 10:55:52;;;;;;;3.90;3.60;;;31.00;1.00;;;;;;4987964;28;20838;-84
2023/06/25 10:58:32;;;;;;;4.80;4.10;;;31.10;1.00;;;;;;5004674;28;20437;-84
2023/06/25 11:01:25;;;;;;;5.60;4.37;;;31.30;1.00;;;;;;4998746;28;20916;-83
2023/06/25 11:04:37;;;;;;;4.70;4.20;;;31.30;1.00;;;;;;4993283;28;20412;-83
2023/06/25 11:10:32;;;;;;;4.57;4.13;;;31.20;1.00;;;;;;5001278;28;20411;-84
2023/06/25 11:13:43;;;;;;;8.20;4.40;;;31.20;1.00;;;;;;5008263;28;20476;-84
2023/06/25 11:16:09;;;;;;;6.20;4.37;;;31.40;1.00;;;;;;5023353;28;20423;-84
2023/06/25 11:19:13;;;;;;;7.27;4.07;;;31.40;1.00;;;;;;5003008;28;20424;-84
2023/06/25 11:21:44;;;;;;;4.13;3.80;;;31.60;1.00;;;;;;4997260;28;20173;-84
2023/06/25 11:27:38;;;;;;;5.60;4.03;;;31.80;1.00;;;;;;4990968;28;20404;-84
2023/06/25 11:33:25;;;;;;;4.10;3.70;;;31.90;1.00;;;;;;4993458;28;20499;-84
2023/06/25 11:36:31;;;;;;;5.70;4.20;;;32.00;1.00;;;;;;4989475;28;20931;-84
2023/06/25 11:39:03;;;;;;;4.30;3.90;;;32.00;1.00;;;;;;4994183;28;20204;-84
2023/06/25 11:41:32;;;;;;;5.73;4.23;;;32.10;1.00;;;;;;5008256;28;20447;-83
2023/06/25 11:44:02;;;;;;;5.37;3.90;;;32.10;1.00;;;;;;5007486;28;20942;-83
2023/06/25 11:46:29;;;;;;;3.80;3.50;;;32.10;1.00;;;;;;4987347;28;20985;-83
2023/06/25 11:49:02;;;;;;;7.10;4.27;;;32.20;1.00;;;;;;4998803;28;20782;-83
2023/06/25 11:51:32;;;;;;;5.23;3.70;;;32.30;1.00;;;;;;4994757;28;20417;-83
2023/06/25 11:54:08;;;;;;;6.00;4.63;;;32.40;1.00;;;;;;4980744;28;20932;-83
2023/06/25 11:57:02;;;;;;;4.67;4.17;;;32.50;1.00;;;;;;4988645;28;20444;-84
2023/06/25 11:59:32;;;;;;;10.10;4.13;;;32.70;1.00;;;;;;4999272;28;20440;-83
2023/06/25 12:02:08;;;;;;;4.40;4.00;;;32.50;1.00;;;;;;4998993;28;20439;-83
2023/06/25 12:08:02;;;;;;;4.13;3.47;;;32.60;1.00;;;;;;5014325;28;20393;-83
2023/06/25 12:11:13;;;;;;;4.30;3.93;;;32.70;1.00;;;;;;5012722;28;20423;-84
2023/06/25 12:20:23;;;;;;;4.50;4.10;;;32.40;1.00;;;;;;4996980;28;20365;-84
2023/06/25 12:22:48;;;;;;;7.33;4.30;;;32.50;1.00;;;;;;4996749;28;20878;-84
2023/06/25 12:25:20;;;;;;;4.23;3.80;;;32.60;1.00;;;;;;4996269;28;20197;-84
2023/06/25 12:27:54;;;;;;;4.30;3.90;;;32.70;1.00;;;;;;5009502;28;20182;-84
2023/06/25 12:30:20;;;;;;;4.73;4.10;;;32.70;1.00;;;;;;4996104;28;20943;-85
2023/06/25 12:33:07;;;;;;;4.27;3.87;;;32.80;1.00;;;;;;4996396;28;20468;-85
2023/06/25 12:36:19;;;;;;;4.47;4.07;;;32.80;1.00;;;;;;4985913;28;20186;-85
2023/06/25 12:39:02;;;;;;;5.10;3.93;;;33.10;1.00;;;;;;4992455;28;20465;-85
2023/06/25 12:42:02;;;;;;;6.97;4.23;;;33.40;1.00;;;;;;4991336;28;20429;-85
2023/06/25 12:44:44;;;;;;;4.17;3.87;;;33.40;1.00;;;;;;4996677;28;20503;-84
2023/06/25 13:00:37;;;;;;;4.40;4.03;;;33.70;1.00;;;;;;4995528;28;20490;-84
2023/06/25 13:03:31;;;;;;;4.57;4.10;;;33.70;1.00;;;;;;4995993;28;20914;-84
2023/06/25 13:06:08;;;;;;;4.23;3.83;;;33.70;1.00;;;;;;5002895;28;20205;-84
2023/06/25 13:08:34;;;;;;;4.77;4.03;;;33.70;1.00;;;;;;4995915;28;20490;-83
2023/06/25 13:11:02;;;;;;;4.60;4.13;;;33.80;1.00;;;;;;4999664;28;20421;-84
2023/06/25 13:14:19;;;;;;;4.10;3.80;;;33.80;1.00;;;;;;4994987;28;20205;-84
2023/06/25 13:16:56;;;;;;;4.67;4.13;;;34.00;1.00;;;;;;5000473;28;20425;-83
2023/06/25 13:19:32;;;;;;;4.37;3.97;;;34.10;1.00;;;;;;5006402;28;20415;-85
2023/06/25 13:25:20;;;;;;;5.70;3.83;;;34.00;1.00;;;;;;4983770;28;20500;-85
2023/06/25 13:27:56;;;;;;;4.83;4.33;;;33.90;1.00;;;;;;4996092;28;20440;-85
2023/06/25 13:30:25;;;;;;;4.77;4.37;;;33.70;1.00;;;;;;4995055;28;20424;-85
2023/06/25 13:33:31;;;;;;;4.53;4.07;;;33.70;1.00;;;;;;4999027;28;20433;-84
2023/06/25 13:35:57;;;;;;;4.83;4.37;;;33.90;1.00;;;;;;4991020;28;20436;-84
2023/06/25 13:38:32;;;;;;;4.40;4.00;;;34.00;1.00;;;;;;4995834;28;20445;-84
2023/06/25 13:40:57;;;;;;;4.23;3.83;;;34.20;1.00;;;;;;4988497;28;20178;-84
2023/06/25 13:47:14;;;;;;;8.23;4.30;;;34.50;1.00;;;;;;4988532;28;20220;-84
2023/06/25 13:49:43;;;;;;;4.70;4.10;;;;;;;;;;4997556;28;20425;-85
2023/06/25 13:52:31;;;;;;;12.23;4.47;;;34.60;1.00;;;;;;4990692;28;20825;-85
2023/06/25 13:55:31;;;;;;;4.57;4.00;;;34.50;1.00;;;;;;4994032;28;20431;-84
2023/06/25 13:58:02;;;;;;;4.60;4.20;;;34.40;1.00;;;;;;4990115;28;20441;-84
2023/06/25 14:00:51;;;;;;;4.40;3.77;;;34.30;1.00;;;;;;5003082;28;20435;-85
2023/06/25 14:03:26;;;;;;;4.20;3.80;;;34.40;1.00;;;;;;4992268;28;20432;-85
2023/06/25 14:05:56;;;;;;;7.00;3.63;;;34.60;1.00;;;;;;4993404;28;20859;-85
2023/06/25 14:08:32;;;;;;;4.10;3.63;;;34.70;1.00;;;;;;5002764;28;20570;-85
2023/06/25 14:14:19;;;;;;;4.80;4.40;;;34.60;1.00;;;;;;4975507;28;20968;-85
2023/06/25 14:16:50;;;;;;;4.57;4.17;;;34.60;1.00;;;;;;4986983;28;20429;-84
2023/06/25 14:19:32;;;;;;;4.57;3.70;;;34.60;1.00;;;;;;4991576;28;20928;-84
2023/06/25 14:22:14;;;;;;;5.13;4.10;;;34.70;1.00;;;;;;5008764;28;20408;-85
2023/06/25 14:24:44;;;;;;;3.90;3.60;;;34.90;1.00;;;;;;5006948;28;20538;-85
2023/06/25 14:27:49;;;;;;;3.80;3.50;;;34.80;1.00;;;;;;5024112;28;20440;-84
2023/06/25 14:30:26;;;;;;;3.87;3.57;;;34.90;1.00;;;;;;4996988;28;20393;-85
2023/06/25 14:32:52;;;;;;;4.30;3.90;;;35.00;1.00;;;;;;4998965;28;20466;-85
2023/06/25 14:35:43;;;;;;;4.23;3.90;;;34.90;1.00;;;;;;5003879;28;20476;-85
2023/06/25 14:38:43;;;;;;;4.10;3.70;;;34.90;1.00;;;;;;4993354;28;20205;-85
2023/06/25 14:41:14;;;;;;;3.97;3.67;;;34.80;1.00;;;;;;4980743;28;20432;-85
2023/06/25 14:43:56;;;;;;;4.10;3.77;;;34.60;1.00;;;;;;4993952;28;20431;-84
2023/06/25 14:46:22;;;;;;;4.90;3.60;;;34.80;1.00;;;;;;4995941;28;20472;-84
2023/06/25 14:48:56;;;;;;;6.17;4.27;;;34.80;1.00;;;;;;4996299;28;20425;-84
2023/06/25 14:51:55;;;;;;;4.27;3.83;;;35.10;1.00;;;;;;4992781;28;20612;-85
2023/06/25 14:54:21;;;;;;;4.33;3.97;;;35.00;1.00;;;;;;4998747;28;20437;-85
2023/06/25 14:57:07;;;;;;;4.87;3.47;;;35.10;1.00;;;;;;5005472;28;20842;-85
2023/06/25 14:59:44;;;;;;;4.53;4.13;;;35.20;1.00;;;;;;4996429;28;20181;-85
2023/06/25 15:02:10;;;;;;;4.23;3.83;;;35.20;1.00;;;;;;4973934;28;20459;-84
2023/06/25 15:04:47;;;;;;;4.10;3.80;;;35.20;1.00;;;;;;4987448;28;20539;-84
2023/06/25 15:07:14;;;;;;;4.17;3.70;;;35.10;1.00;;;;;;4992788;28;20433;-84
2023/06/25 15:09:44;;;;;;;4.03;3.73;;;36.50;1.00;;;;;;4985555;28;20850;-84
2023/06/25 15:12:10;;;;;;;8.60;4.03;;;36.70;1.00;;;;;;4993529;28;20429;-85
2023/06/25 15:14:44;;;;;;;4.27;3.73;;;37.80;1.00;;;;;;4992721;28;20427;-85
2023/06/25 15:17:10;;;;;;;3.43;3.23;;;39.40;1.00;;;;;;4998205;28;20180;-85
2023/06/25 15:19:36;;;;;;;4.10;3.70;;;41.10;1.00;;;;;;5011101;28;20539;-85
2023/06/25 15:22:03;;;;;;;3.33;3.13;;;42.50;1.00;;;;;;5013582;28;20158;-85
2023/06/25 15:24:32;;;;;;;3.23;3.03;;;43.50;1.00;;;;;;5012291;28;20797;-86
2023/06/25 15:26:58;;;;;;;3.10;2.90;;;45.20;1.00;;;;;;4999670;28;20503;-85
2023/06/25 15:29:24;;;;;;;2.97;2.87;;;46.10;1.00;;;;;;5005787;28;20425;-85